createdAt,value
2023-01-07T00:03:16.630Z,7.00
2023-01-07T00:08:18.890Z,7.00
2023-01-07T00:13:21.119Z,7.10
2023-01-07T00:18:23.324Z,7.10
2023-01-07T00:23:26.464Z,7.10
2023-01-07T00:28:28.845Z,7.10
2023-01-07T00:33:31.278Z,7.20
2023-01-07T00:38:33.601Z,7.20
2023-01-07T00:43:35.930Z,7.20
2023-01-07T00:48:38.183Z,7.40
2023-01-07T00:53:41.100Z,7.50
2023-01-07T00:58:43.822Z,7.50
2023-01-07T01:03:46.162Z,7.60
2023-01-07T01:08:48.505Z,7.80
2023-01-07T01:13:51.383Z,7.80
2023-01-07T01:18:53.697Z,7.80
2023-01-07T01:23:56.416Z,7.90
2023-01-07T01:28:58.687Z,8.10
2023-01-07T01:34:01.449Z,8.20
2023-01-07T01:39:05.043Z,8.30
2023-01-07T01:49:46.261Z,8.30
2023-01-07T01:54:54.917Z,8.50
2023-01-07T01:59:58.508Z,8.30
2023-01-07T02:05:03.737Z,8.10
2023-01-07T02:15:49.071Z,7.90
2023-01-07T02:21:03.549Z,7.80
2023-01-07T02:26:45.768Z,7.70
2023-01-07T02:37:19.622Z,7.60
2023-01-07T02:47:53.544Z,7.50
2023-01-07T02:52:56.005Z,7.40
2023-01-07T03:03:37.489Z,7.40
2023-01-07T03:14:08.941Z,7.50
2023-01-07T03:19:18.441Z,7.60
2023-01-07T03:24:23.398Z,7.70
2023-01-07T03:29:26.046Z,7.80
2023-01-07T03:34:29.925Z,7.90
2023-01-07T03:39:34.649Z,8.00
2023-01-07T03:44:40.121Z,8.10
2023-01-07T03:49:42.853Z,8.10
2023-01-07T03:54:45.224Z,8.20
2023-01-07T03:59:48.381Z,8.20
2023-01-07T04:04:51.220Z,8.20
2023-01-07T04:09:55.281Z,8.20
2023-01-07T04:14:59.219Z,8.20
2023-01-07T04:20:02.354Z,8.20
2023-01-07T04:25:05.165Z,8.20
2023-01-07T04:30:08.081Z,8.20
2023-01-07T04:35:10.169Z,8.20
2023-01-07T04:40:12.481Z,8.20
2023-01-07T04:45:15.175Z,8.20
2023-01-07T04:50:17.406Z,8.20
2023-01-07T04:55:20.544Z,8.20
2023-01-07T05:00:23.679Z,8.20
2023-01-07T05:05:28.499Z,8.20
2023-01-07T05:10:31.280Z,8.10
2023-01-07T05:15:34.085Z,8.10
2023-01-07T05:20:36.634Z,8.00
2023-01-07T05:25:40.525Z,8.00
2023-01-07T05:30:42.874Z,8.00
2023-01-07T05:35:49.028Z,8.00
2023-01-07T05:40:52.944Z,7.90
2023-01-07T05:45:59.363Z,8.00
2023-01-07T05:51:01.646Z,7.90
2023-01-07T05:56:04.134Z,7.90
2023-01-07T06:01:06.431Z,7.90
2023-01-07T06:06:08.803Z,7.90
2023-01-07T06:11:11.134Z,7.90
2023-01-07T06:16:14.453Z,8.00
2023-01-07T06:21:18.379Z,8.00
2023-01-07T06:26:20.464Z,8.10
2023-01-07T06:31:22.613Z,8.10
2023-01-07T06:36:24.814Z,8.20
2023-01-07T06:41:26.915Z,8.30
2023-01-07T06:46:29.169Z,8.40
2023-01-07T06:51:31.644Z,8.50
2023-01-07T06:56:33.904Z,8.70
2023-01-07T07:01:36.220Z,8.80
2023-01-07T07:06:38.501Z,8.90
2023-01-07T07:11:40.722Z,9.00
2023-01-07T07:16:42.937Z,9.20
2023-01-07T07:21:46.675Z,9.30
2023-01-07T07:26:49.252Z,9.30
2023-01-07T07:31:51.498Z,9.10
2023-01-07T07:36:53.608Z,8.90
2023-01-07T07:41:55.801Z,9.00
2023-01-07T07:46:58.260Z,9.50
2023-01-07T07:52:00.439Z,10.40
2023-01-07T07:57:03.935Z,10.70
2023-01-07T08:02:06.107Z,13.20
2023-01-07T08:07:10.342Z,15.80
2023-01-07T08:12:12.573Z,17.70
2023-01-07T08:17:14.982Z,18.70
2023-01-07T08:22:17.219Z,19.00
2023-01-07T08:27:19.558Z,19.90
2023-01-07T08:32:21.922Z,20.20
2023-01-07T08:37:24.280Z,20.70
2023-01-07T08:42:27.034Z,21.20
2023-01-07T08:47:29.324Z,20.60
2023-01-07T08:52:31.682Z,20.60
2023-01-07T08:57:33.956Z,21.10
2023-01-07T09:02:36.400Z,21.70
2023-01-07T09:07:38.960Z,21.00
2023-01-07T09:12:41.270Z,19.90
2023-01-07T09:17:43.510Z,18.50
2023-01-07T09:22:45.846Z,17.50
2023-01-07T09:27:49.459Z,16.70
2023-01-07T09:32:51.761Z,15.90
2023-01-07T09:37:54.101Z,15.10
2023-01-07T09:48:23.863Z,13.80
2023-01-07T09:53:34.289Z,13.20
2023-01-07T09:58:38.031Z,12.90
2023-01-07T10:03:51.838Z,12.80
2023-01-07T10:24:48.742Z,12.10
2023-01-07T10:29:55.222Z,12.20
2023-01-07T10:34:59.928Z,12.40
2023-01-07T10:51:10.711Z,12.20
2023-01-07T11:12:30.447Z,12.10
2023-01-07T11:17:40.561Z,11.90
2023-01-07T11:22:42.831Z,12.00
2023-01-07T11:27:45.860Z,11.90
2023-01-07T11:32:59.451Z,11.60
2023-01-07T11:38:01.797Z,11.70
2023-01-07T11:43:22.401Z,11.70
2023-01-07T11:59:16.897Z,11.30
2023-01-07T12:14:48.240Z,11.40
2023-01-07T12:20:25.173Z,11.10
2023-01-07T12:31:32.674Z,11.30
2023-01-07T12:41:52.254Z,10.90
2023-01-07T12:47:31.212Z,11.10
2023-01-07T13:03:56.223Z,11.50
2023-01-07T13:09:09.200Z,11.70
2023-01-07T13:14:23.410Z,11.40
2023-01-07T13:19:26.746Z,11.30
2023-01-07T13:24:56.281Z,11.20
2023-01-07T13:30:24.172Z,11.00
2023-01-07T13:35:57.719Z,10.80
2023-01-07T13:46:35.701Z,10.50
2023-01-07T13:51:38.997Z,10.50
2023-01-07T13:56:41.257Z,10.50
2023-01-07T14:02:20.717Z,10.50
2023-01-07T14:07:23.952Z,10.50
2023-01-07T14:17:57.582Z,10.50
2023-01-07T14:33:47.017Z,10.30
2023-01-07T14:39:05.930Z,10.10
2023-01-07T14:44:29.137Z,10.00
2023-01-07T14:49:44.027Z,10.00
2023-01-07T15:11:50.044Z,10.30
2023-01-07T15:16:53.593Z,10.40
2023-01-07T15:37:53.439Z,10.70
2023-01-07T15:42:58.443Z,10.80
2023-01-07T15:48:12.276Z,10.80
2023-01-07T15:58:48.805Z,10.70
2023-01-07T16:03:55.843Z,10.70
2023-01-07T16:08:59.620Z,10.70
2023-01-07T16:14:04.714Z,10.70
2023-01-07T16:19:06.948Z,10.60
2023-01-07T16:24:16.305Z,10.60
2023-01-07T16:29:25.363Z,10.50
2023-01-07T16:39:42.872Z,10.50
2023-01-07T16:49:57.518Z,10.50
2023-01-07T16:55:00.159Z,10.40
2023-01-07T17:00:04.267Z,10.30
2023-01-07T17:10:35.846Z,10.30
2023-01-07T17:15:39.786Z,10.30
2023-01-07T17:31:07.397Z,10.30
2023-01-07T17:36:19.595Z,10.20
2023-01-07T17:41:43.571Z,10.20
2023-01-07T17:46:45.844Z,10.20
2023-01-07T17:51:49.410Z,10.10
2023-01-07T17:56:52.534Z,10.10
2023-01-07T18:01:56.659Z,10.10
2023-01-07T18:06:59.056Z,10.10
2023-01-07T18:12:21.205Z,10.10
2023-01-07T18:17:23.408Z,10.10
2023-01-07T18:22:25.745Z,10.10
2023-01-07T18:27:27.982Z,10.10
2023-01-07T18:32:30.204Z,10.10
2023-01-07T18:37:32.432Z,10.10
2023-01-07T18:42:35.689Z,10.20
2023-01-07T18:47:38.186Z,10.10
2023-01-07T18:52:41.374Z,10.10
2023-01-07T18:57:43.715Z,10.30
2023-01-07T19:02:46.012Z,10.30
2023-01-07T19:07:48.291Z,10.40
2023-01-07T19:12:50.659Z,10.40
2023-01-07T19:17:52.996Z,10.40
2023-01-07T19:23:00.243Z,10.40
2023-01-07T19:28:02.650Z,10.50
2023-01-07T19:33:04.884Z,10.40
2023-01-07T19:38:07.149Z,10.30
2023-01-07T19:43:09.548Z,10.30
2023-01-07T19:48:11.922Z,10.30
2023-01-07T19:53:14.138Z,10.20
2023-01-07T19:58:16.640Z,10.20
2023-01-07T20:03:18.933Z,10.20
2023-01-07T20:08:21.221Z,10.20
2023-01-07T20:13:23.599Z,10.20
2023-01-07T20:18:25.849Z,10.20
2023-01-07T20:23:28.049Z,10.20
2023-01-07T20:28:30.316Z,10.20
2023-01-07T20:33:33.157Z,10.30
2023-01-07T20:38:36.107Z,10.30
2023-01-07T20:43:38.400Z,10.30
2023-01-07T20:48:40.620Z,10.20
2023-01-07T20:53:43.516Z,10.20
2023-01-07T20:58:46.270Z,10.10
2023-01-07T21:03:48.997Z,10.10
2023-01-07T21:08:51.433Z,10.10
2023-01-07T21:13:56.260Z,10.10
2023-01-07T21:18:58.806Z,10.10
2023-01-07T21:24:01.028Z,10.20
2023-01-07T21:29:03.344Z,10.10
2023-01-07T21:34:05.535Z,10.10
2023-01-07T21:39:08.640Z,10.10
2023-01-07T21:44:12.242Z,10.10
2023-01-07T21:49:14.677Z,10.10
2023-01-07T21:54:17.260Z,10.10
2023-01-07T22:12:40.140Z,10.10
2023-01-07T22:17:43.019Z,10.10
2023-01-07T22:22:45.395Z,10.10
2023-01-07T22:27:47.729Z,10.00
2023-01-07T22:32:49.948Z,9.90
2023-01-07T22:37:52.940Z,9.80
2023-01-07T22:42:58.851Z,9.80
2023-01-07T22:48:02.295Z,9.80
2023-01-07T22:53:05.053Z,9.70
2023-01-07T22:58:07.604Z,9.70
2023-01-07T23:03:09.965Z,9.70
2023-01-07T23:08:12.531Z,9.70
2023-01-07T23:13:15.057Z,9.70
2023-01-07T23:18:17.995Z,9.60
2023-01-07T23:23:20.261Z,9.60
2023-01-07T23:28:22.552Z,9.60
2023-01-07T23:33:24.868Z,9.50
2023-01-07T23:38:27.140Z,9.50
2023-01-07T23:43:29.685Z,9.50
2023-01-07T23:48:33.823Z,9.40
2023-01-07T23:53:36.796Z,9.40
2023-01-07T23:58:39.141Z,9.40
